Time;durP1;ratioP1;P1;durP2;ratioP2;P2;SDS_P1;SDS_P2;PMS_P1;PMS_P2;Temp;Humidity;BMP_temperature;BMP_pressure;BME280_temperature;BME280_humidity;BME280_pressure;Samples;Min_cycle;Max_cycle;Signal;HPM_P1;HPM_P2
2023/07/17 00:05:20;;;;;;;6.80;4.43;;;30.70;79.70;;;;;;10942261;32;20019;-73
2023/07/17 00:11:22;;;;;;;5.93;3.47;;;30.60;79.70;;;;;;10942159;32;20023;-73
2023/07/17 00:17:25;;;;;;;7.20;5.18;;;30.50;79.70;;;;;;10927892;32;20027;-73
2023/07/17 00:23:27;;;;;;;5.32;3.95;;;30.50;79.70;;;;;;10941823;32;20097;-73
2023/07/17 00:29:29;;;;;;;6.82;4.65;;;30.50;79.60;;;;;;10941546;32;20041;-73
2023/07/17 00:35:31;;;;;;;5.05;3.67;;;30.40;80.10;;;;;;10941650;32;20051;-73
2023/07/17 00:41:33;;;;;;;6.75;4.75;;;30.50;79.90;;;;;;10941434;32;20038;-73
2023/07/17 00:47:36;;;;;;;6.55;4.57;;;30.50;79.60;;;;;;10927396;32;20030;-73
2023/07/17 00:53:38;;;;;;;9.75;4.78;;;30.40;79.50;;;;;;10948132;32;20011;-73
2023/07/17 00:59:41;;;;;;;8.05;4.78;;;30.30;79.60;;;;;;10945465;32;20023;-73
2023/07/17 01:05:44;;;;;;;5.97;4.15;;;30.30;79.70;;;;;;10948474;32;20011;-73
2023/07/17 01:11:46;;;;;;;7.62;4.87;;;30.20;79.80;;;;;;10948235;32;20333;-73
2023/07/17 01:17:48;;;;;;;5.68;4.43;;;30.10;79.80;;;;;;10948071;32;20015;-73
2023/07/17 01:23:52;;;;;;;7.75;4.25;;;30.10;79.70;;;;;;10947804;32;20023;-73
2023/07/17 01:29:54;;;;;;;7.35;5.00;;;30.10;79.70;;;;;;10947496;32;20397;-73
2023/07/17 01:35:56;;;;;;;6.78;4.82;;;30.10;79.60;;;;;;10947473;32;20065;-73
2023/07/17 01:41:58;;;;;;;7.15;4.93;;;30.00;79.60;;;;;;10947284;32;20394;-73
2023/07/17 01:48:00;;;;;;;5.28;3.80;;;29.90;79.70;;;;;;10933680;32;20061;-73
2023/07/17 01:54:02;;;;;;;10.30;5.65;;;29.80;79.80;;;;;;10930911;32;20030;-73
2023/07/17 02:00:04;;;;;;;6.82;4.90;;;29.80;79.80;;;;;;10946289;32;20430;-73
2023/07/17 02:06:17;;;;;;;5.57;4.22;;;29.80;79.80;;;;;;10946473;32;20011;-73
2023/07/17 02:12:19;;;;;;;10.95;4.60;;;29.80;80.00;;;;;;10946140;32;20037;-73
2023/07/17 02:18:21;;;;;;;8.35;5.87;;;29.80;79.90;;;;;;10946023;32;20055;-73
2023/07/17 02:24:23;;;;;;;7.05;5.53;;;29.80;79.70;;;;;;10945916;32;20033;-72
2023/07/17 02:30:25;;;;;;;8.93;5.80;;;29.70;79.70;;;;;;10945445;32;20401;-73
2023/07/17 02:36:28;;;;;;;6.45;4.72;;;29.60;79.70;;;;;;10945391;32;20302;-73
2023/07/17 02:42:30;;;;;;;6.75;5.15;;;29.50;79.70;;;;;;10945138;32;20041;-73
2023/07/17 02:48:32;;;;;;;11.65;6.15;;;29.50;79.60;;;;;;10944918;32;20019;-73
2023/07/17 02:54:39;;;;;;;8.18;5.97;;;29.50;79.40;;;;;;10942804;32;20389;-73
2023/07/17 03:00:42;;;;;;;6.70;5.05;;;29.40;79.60;;;;;;10944534;32;20081;-72
2023/07/17 03:06:44;;;;;;;9.43;6.18;;;29.40;79.40;;;;;;10944304;32;20027;-73
2023/07/17 03:12:46;;;;;;;6.55;5.07;;;29.30;79.50;;;;;;10943328;32;20038;-72
2023/07/17 03:18:48;;;;;;;7.90;5.37;;;29.30;79.70;;;;;;10930256;32;20046;-73
2023/07/17 03:24:50;;;;;;;7.55;5.65;;;29.30;79.70;;;;;;10943545;32;20019;-73
2023/07/17 03:30:52;;;;;;;6.87;5.47;;;29.30;79.70;;;;;;10943396;32;20023;-73
2023/07/17 03:36:55;;;;;;;8.40;6.15;;;29.20;79.70;;;;;;10939076;32;20344;-73
2023/07/17 03:42:57;;;;;;;7.18;4.62;;;29.20;79.80;;;;;;10943031;32;20019;-73
2023/07/17 03:48:59;;;;;;;9.38;5.62;;;29.10;80.00;;;;;;10941975;32;20026;-73
2023/07/17 03:55:02;;;;;;;7.75;4.78;;;29.10;80.60;;;;;;10942650;32;20076;-73
2023/07/17 04:01:05;;;;;;;7.75;5.07;;;29.20;81.00;;;;;;10941420;32;20046;-73
2023/07/17 04:07:11;;;;;;;5.72;4.00;;;29.10;81.50;;;;;;10942203;32;20069;-73
2023/07/17 04:13:13;;;;;;;9.90;5.93;;;29.00;82.20;;;;;;10942120;32;20027;-73
2023/07/17 04:19:15;;;;;;;6.15;4.70;;;29.00;82.60;;;;;;10941865;32;20037;-73
2023/07/17 04:25:17;;;;;;;6.80;5.00;;;29.00;83.00;;;;;;10928401;32;20020;-72
2023/07/17 04:31:20;;;;;;;7.00;4.70;;;28.90;83.20;;;;;;10927666;32;20035;-73
2023/07/17 04:37:22;;;;;;;7.72;5.43;;;29.00;83.20;;;;;;10941488;32;20085;-73
2023/07/17 04:43:24;;;;;;;10.98;6.07;;;28.90;83.40;;;;;;10938458;32;20353;-73
2023/07/17 04:49:27;;;;;;;8.20;5.32;;;29.00;83.50;;;;;;10941432;32;20390;-73
2023/07/17 04:55:29;;;;;;;11.35;6.87;;;29.00;83.50;;;;;;10941310;32;20397;-72
2023/07/17 05:01:31;;;;;;;11.10;5.75;;;29.00;83.50;;;;;;10940942;32;20023;-73
2023/07/17 05:07:33;;;;;;;9.32;7.28;;;29.10;83.50;;;;;;10927196;32;20031;-73
2023/07/17 05:13:36;;;;;;;13.95;7.43;;;29.10;83.50;;;;;;10940762;32;20027;-73
2023/07/17 05:19:38;;;;;;;10.88;6.47;;;29.20;83.10;;;;;;10936675;32;20443;-72
2023/07/17 05:25:50;;;;;;;18.37;11.07;;;29.30;82.80;;;;;;10940724;32;20406;-72
2023/07/17 05:31:52;;;;;;;11.65;7.85;;;29.30;83.00;;;;;;10936556;32;20085;-73
2023/07/17 05:37:55;;;;;;;15.05;10.93;;;29.30;82.90;;;;;;10944677;32;20023;-71
2023/07/17 05:43:57;;;;;;;17.17;10.55;;;29.30;82.50;;;;;;10947226;32;20058;-72
2023/07/17 05:49:59;;;;;;;13.62;10.35;;;29.20;82.60;;;;;;10946920;32;20405;-72
2023/07/17 05:56:02;;;;;;;14.90;9.82;;;29.10;82.40;;;;;;10946746;32;20336;-72
2023/07/17 06:02:05;;;;;;;9.27;6.55;;;29.10;82.50;;;;;;10946420;32;20405;-72
2023/07/17 06:08:09;;;;;;;10.82;8.23;;;29.20;82.30;;;;;;10945777;32;20043;-72
2023/07/17 06:14:11;;;;;;;11.38;8.40;;;29.10;82.20;;;;;;10946293;32;20054;-72
2023/07/17 06:20:13;;;;;;;12.65;9.50;;;29.20;82.60;;;;;;10945984;32;20348;-73
2023/07/17 06:26:15;;;;;;;16.45;10.57;;;29.30;82.80;;;;;;10939364;32;20019;-72
2023/07/17 06:32:17;;;;;;;14.30;10.07;;;29.40;82.90;;;;;;10945482;32;20027;-73
2023/07/17 06:38:20;;;;;;;16.30;10.55;;;29.40;83.60;;;;;;10945928;32;20321;-74
2023/07/17 06:44:22;;;;;;;13.60;9.95;;;29.40;83.60;;;;;;10945113;32;20502;-74
2023/07/17 06:50:24;;;;;;;14.23;10.73;;;29.70;83.00;;;;;;10917510;32;20439;-73
2023/07/17 06:56:26;;;;;;;13.73;9.27;;;29.80;82.10;;;;;;10944705;32;20045;-73
2023/07/17 07:02:28;;;;;;;10.90;8.20;;;30.00;81.80;;;;;;10944477;32;20019;-74
2023/07/17 07:08:31;;;;;;;14.70;10.10;;;30.20;81.50;;;;;;10930797;32;20027;-73
2023/07/17 07:14:33;;;;;;;12.15;9.35;;;30.30;81.20;;;;;;10944019;32;20018;-73
2023/07/17 07:20:36;;;;;;;11.95;9.52;;;30.40;81.10;;;;;;10943804;32;20019;-73
2023/07/17 07:26:38;;;;;;;11.68;9.27;;;30.60;81.20;;;;;;10943649;32;20015;-71
2023/07/17 07:32:41;;;;;;;13.07;8.98;;;30.80;80.90;;;;;;10942351;27;20416;-72
2023/07/17 07:38:43;;;;;;;10.90;6.62;;;30.70;79.90;;;;;;10943147;32;20027;-73
2023/07/17 07:44:45;;;;;;;9.93;7.50;;;30.80;79.80;;;;;;10929293;32;20015;-72
2023/07/17 07:50:47;;;;;;;12.77;7.80;;;30.80;79.30;;;;;;10942846;32;20023;-73
2023/07/17 07:56:52;;;;;;;8.70;6.62;;;30.90;79.10;;;;;;10924760;32;20030;-72
2023/07/17 08:02:54;;;;;;;9.88;5.70;;;31.00;78.80;;;;;;10942067;32;20007;-72
2023/07/17 08:08:56;;;;;;;8.05;5.40;;;31.10;78.90;;;;;;10942083;32;20037;-73
2023/07/17 08:14:58;;;;;;;8.63;6.25;;;31.30;78.70;;;;;;10942068;32;20020;-73
2023/07/17 08:21:01;;;;;;;6.72;4.97;;;31.30;78.50;;;;;;10941970;32;20405;-72
2023/07/17 08:27:03;;;;;;;6.80;5.22;;;31.50;78.40;;;;;;10938503;32;20058;-73
2023/07/17 08:33:05;;;;;;;8.32;4.93;;;31.70;77.90;;;;;;10941640;32;20045;-72
2023/07/17 08:39:09;;;;;;;10.73;5.87;;;31.70;78.20;;;;;;10927523;32;20030;-73
2023/07/17 08:45:12;;;;;;;8.85;5.20;;;31.80;77.60;;;;;;10941458;32;20015;-72
2023/07/17 08:51:15;;;;;;;9.82;6.22;;;31.90;76.80;;;;;;10941289;32;20027;-72
2023/07/17 08:57:18;;;;;;;12.85;6.55;;;31.80;75.50;;;;;;10935204;32;20033;-72
2023/07/17 09:03:20;;;;;;;8.45;5.97;;;31.90;75.70;;;;;;10941202;32;20041;-73
2023/07/17 09:09:22;;;;;;;9.50;5.75;;;32.00;75.10;;;;;;10927681;32;20053;-74
2023/07/17 09:15:27;;;;;;;7.70;5.78;;;32.20;74.60;;;;;;10948311;32;20380;-72
2023/07/17 09:21:29;;;;;;;13.73;6.25;;;32.30;74.60;;;;;;10930707;32;20041;-73
2023/07/17 09:27:59;;;;;;;12.60;5.50;;;32.40;73.70;;;;;;10934132;32;20035;-73
2023/07/17 09:34:11;;;;;;;7.40;4.35;;;32.60;72.90;;;;;;10947548;32;20045;-73
2023/07/17 09:40:17;;;;;;;8.75;5.28;;;32.80;72.30;;;;;;10943298;32;20047;-71
2023/07/17 09:46:20;;;;;;;;;;;32.90;72.10;;;;;;10941836;32;20050;-73
2023/07/17 09:52:23;;;;;;;8.85;6.25;;;33.00;71.70;;;;;;10945856;32;19945;-73
2023/07/17 09:58:29;;;;;;;8.45;4.72;;;33.10;70.80;;;;;;10946768;32;20042;-72
2023/07/17 10:04:42;;;;;;;8.02;5.22;;;33.30;70.00;;;;;;10932605;32;20117;-73
2023/07/17 10:10:44;;;;;;;11.57;5.55;;;33.30;69.70;;;;;;10946223;32;20065;-71
2023/07/17 10:16:46;;;;;;;15.48;7.35;;;33.40;69.70;;;;;;10946217;32;20046;-73
2023/07/17 10:22:49;;;;;;;6.00;4.12;;;33.50;69.50;;;;;;10943758;32;20307;-72
2023/07/17 10:28:54;;;;;;;8.98;4.35;;;33.40;69.70;;;;;;10946517;32;20349;-72
2023/07/17 10:34:56;;;;;;;9.63;5.20;;;33.60;69.40;;;;;;10931488;32;20054;-72
2023/07/17 10:41:10;;;;;;;7.10;5.30;;;33.80;69.40;;;;;;10942418;32;20050;-71
2023/07/17 10:47:12;;;;;;;20.95;7.40;;;34.00;67.90;;;;;;10945118;32;20041;-71
2023/07/17 10:53:14;;;;;;;6.50;4.70;;;34.10;67.80;;;;;;10944764;32;20037;-72
2023/07/17 10:59:17;;;;;;;10.07;6.60;;;34.20;66.80;;;;;;10944772;32;20019;-72
2023/07/17 11:05:19;;;;;;;10.65;6.25;;;34.40;66.10;;;;;;10944436;32;20356;-73
2023/07/17 11:11:22;;;;;;;10.63;6.25;;;34.60;65.40;;;;;;10944285;32;20275;-73
2023/07/17 11:17:25;;;;;;;11.05;6.25;;;34.70;64.30;;;;;;10930089;32;20314;-71
2023/07/17 11:23:27;;;;;;;6.65;4.32;;;34.80;63.90;;;;;;10943836;32;20023;-71
2023/07/17 11:29:30;;;;;;;9.60;6.00;;;35.00;63.30;;;;;;10943462;32;20443;-73
2023/07/17 11:35:39;;;;;;;11.63;6.90;;;35.30;62.00;;;;;;10942815;32;20401;-72
2023/07/17 11:41:48;;;;;;;9.25;4.80;;;35.30;61.10;;;;;;10943098;32;20057;-73
2023/07/17 11:47:53;;;;;;;7.80;4.95;;;35.50;60.70;;;;;;10928459;32;20054;-72
2023/07/17 11:53:56;;;;;;;6.18;4.78;;;35.90;60.70;;;;;;10942669;32;20057;-72
2023/07/17 12:00:05;;;;;;;12.50;5.60;;;36.10;60.10;;;;;;10942659;32;20307;-72
2023/07/17 12:06:13;;;;;;;13.27;5.75;;;36.10;59.20;;;;;;10942459;32;20365;-71
2023/07/17 12:12:15;;;;;;;7.12;4.90;;;36.10;58.50;;;;;;10925844;32;20011;-72
2023/07/17 12:18:17;;;;;;;17.02;5.72;;;35.90;59.20;;;;;;10941869;32;20019;-72
2023/07/17 12:24:20;;;;;;;11.88;5.40;;;36.00;59.90;;;;;;10941711;32;20428;-72
2023/07/17 12:30:22;;;;;;;7.72;5.25;;;36.00;60.00;;;;;;10941614;32;20041;-72
2023/07/17 12:36:24;;;;;;;7.85;4.87;;;36.20;59.20;;;;;;10937521;32;20377;-72
2023/07/17 12:42:27;;;;;;;10.48;6.07;;;36.40;59.00;;;;;;10941884;32;20337;-72
2023/07/17 12:48:29;;;;;;;15.27;6.82;;;36.60;58.90;;;;;;10948103;32;20019;-72
2023/07/17 12:54:31;;;;;;;9.98;5.47;;;36.40;58.50;;;;;;10949034;32;20042;-72
2023/07/17 13:00:33;;;;;;;8.45;5.72;;;36.30;58.90;;;;;;10948843;32;20069;-72
2023/07/17 13:06:35;;;;;;;8.93;5.35;;;36.30;59.00;;;;;;10948591;32;20037;-72
2023/07/17 13:12:37;;;;;;;8.93;5.72;;;36.40;57.80;;;;;;10948356;32;20321;-73
2023/07/17 13:18:40;;;;;;;8.82;4.47;;;36.40;57.40;;;;;;10934756;32;20042;-72
2023/07/17 13:24:43;;;;;;;8.57;4.65;;;36.30;58.00;;;;;;10947989;32;20037;-73
2023/07/17 13:30:45;;;;;;;10.52;6.00;;;36.40;57.70;;;;;;10947565;32;20026;-73
2023/07/17 13:36:47;;;;;;;9.25;6.68;;;36.40;60.30;;;;;;10947529;32;20037;-73
2023/07/17 13:42:49;;;;;;;9.98;5.20;;;36.50;59.50;;;;;;10933694;32;20027;-72
2023/07/17 13:48:51;;;;;;;7.78;5.85;;;36.70;58.30;;;;;;10947176;32;20019;-73
2023/07/17 13:54:54;;;;;;;12.65;5.65;;;36.70;57.10;;;;;;10933076;32;20391;-72
2023/07/17 14:00:56;;;;;;;7.65;4.93;;;36.60;56.70;;;;;;10946527;32;20015;-73
2023/07/17 14:06:58;;;;;;;9.25;4.78;;;36.60;55.80;;;;;;10946594;32;20018;-73
2023/07/17 14:13:00;;;;;;;7.22;5.30;;;36.60;55.50;;;;;;10946254;32;20042;-73
2023/07/17 14:19:02;;;;;;;11.40;5.57;;;36.80;57.90;;;;;;10946127;32;20019;-72
2023/07/17 14:25:05;;;;;;;10.15;5.07;;;36.80;60.00;;;;;;10931792;32;20022;-72
2023/07/17 14:31:07;;;;;;;11.25;6.10;;;36.70;59.30;;;;;;10931857;32;20393;-73
2023/07/17 14:37:09;;;;;;;8.18;5.00;;;36.70;58.60;;;;;;10946709;32;20011;-73
2023/07/17 14:43:11;;;;;;;8.05;4.72;;;36.80;58.00;;;;;;10944032;32;20019;-73
2023/07/17 14:49:13;;;;;;;9.27;5.03;;;36.70;57.90;;;;;;10945550;32;20047;-73
2023/07/17 14:55:16;;;;;;;6.50;4.72;;;36.60;58.10;;;;;;10940657;32;20321;-73
2023/07/17 15:01:19;;;;;;;9.75;3.87;;;36.50;58.10;;;;;;10945861;32;20014;-73
2023/07/17 15:07:21;;;;;;;7.47;5.12;;;36.40;58.30;;;;;;10945125;32;20423;-73
2023/07/17 15:13:23;;;;;;;7.28;4.93;;;36.50;58.10;;;;;;10945454;32;20061;-73
2023/07/17 15:19:25;;;;;;;6.20;4.28;;;36.40;60.50;;;;;;10945310;32;20027;-73
2023/07/17 15:31:24;;;;;;;14.50;6.22;;;36.50;59.60;;;;;;10820003;32;7340035;-73
2023/07/17 15:37:26;;;;;;;9.70;7.28;;;36.60;60.10;;;;;;11050847;32;20018;-73
2023/07/17 15:43:28;;;;;;;11.32;6.78;;;36.40;61.30;;;;;;11036486;32;20041;-72
2023/07/17 15:49:30;;;;;;;7.50;5.30;;;36.40;64.00;;;;;;11037989;32;20392;-73
2023/07/17 15:55:32;;;;;;;15.20;7.68;;;36.30;63.40;;;;;;11051349;32;20190;-72
2023/07/17 16:01:35;;;;;;;7.93;5.05;;;36.30;63.20;;;;;;11045915;32;20340;-73
2023/07/17 16:07:37;;;;;;;7.62;5.05;;;36.40;63.00;;;;;;11051195;32;20153;-73
2023/07/17 16:13:39;;;;;;;8.40;6.68;;;36.40;62.20;;;;;;11050884;32;20427;-73
2023/07/17 16:19:43;;;;;;;9.10;5.60;;;36.40;63.40;;;;;;11050753;32;20022;-72
2023/07/17 16:25:45;;;;;;;10.90;6.53;;;36.40;62.50;;;;;;11030876;32;20060;-72
2023/07/17 16:31:47;;;;;;;16.10;6.18;;;36.40;63.40;;;;;;11036480;32;20022;-72
2023/07/17 16:37:49;;;;;;;8.90;4.87;;;36.40;64.20;;;;;;11030581;32;20392;-72
2023/07/17 16:43:51;;;;;;;10.05;5.87;;;36.40;64.10;;;;;;11012829;32;20032;-72
2023/07/17 16:49:53;;;;;;;10.88;5.60;;;36.30;65.10;;;;;;10988538;32;20089;-72
2023/07/17 16:55:56;;;;;;;9.38;6.03;;;36.30;66.20;;;;;;11000668;32;20373;-72
2023/07/17 17:01:58;;;;;;;8.55;4.57;;;36.30;65.70;;;;;;11019929;32;20064;-72
2023/07/17 17:08:02;;;;;;;11.80;5.37;;;36.30;65.70;;;;;;11002499;32;20332;-73
2023/07/17 17:14:04;;;;;;;11.50;5.55;;;36.20;65.80;;;;;;10980964;32;20336;-71
2023/07/17 17:20:09;;;;;;;8.52;5.75;;;36.10;66.50;;;;;;10983913;32;20022;-72
2023/07/17 17:26:11;;;;;;;9.73;4.95;;;36.00;67.10;;;;;;10984171;32;20333;-72
2023/07/17 17:32:13;;;;;;;12.07;5.32;;;35.90;66.60;;;;;;10984745;32;20383;-72
2023/07/17 17:38:16;;;;;;;9.55;4.87;;;35.90;66.90;;;;;;10986923;32;20041;-72
2023/07/17 17:44:18;;;;;;;5.82;3.95;;;36.00;66.30;;;;;;11017510;32;20026;-72
2023/07/17 17:50:20;;;;;;;8.48;5.30;;;35.90;66.40;;;;;;11008186;32;20026;-72
2023/07/17 17:56:22;;;;;;;9.77;4.55;;;35.90;67.30;;;;;;10977018;32;20439;-72
2023/07/17 18:02:24;;;;;;;6.62;3.75;;;35.90;67.10;;;;;;10978315;32;20061;-73
2023/07/17 18:08:26;;;;;;;9.95;3.72;;;36.00;67.00;;;;;;10977656;32;20435;-72
2023/07/17 18:14:28;;;;;;;9.10;4.82;;;36.00;67.00;;;;;;10980895;32;20023;-73
2023/07/17 18:20:33;;;;;;;7.43;4.18;;;35.80;67.60;;;;;;10982615;32;20057;-73
2023/07/17 18:26:35;;;;;;;6.43;4.10;;;35.40;68.30;;;;;;10980097;32;20314;-72
2023/07/17 18:32:37;;;;;;;9.90;4.12;;;35.30;68.60;;;;;;10977941;32;20046;-72
2023/07/17 18:38:39;;;;;;;6.07;3.95;;;35.00;69.70;;;;;;10976947;32;20060;-73
2023/07/17 18:44:42;;;;;;;5.68;3.72;;;34.80;70.20;;;;;;10977398;32;20019;-73
2023/07/17 18:50:44;;;;;;;7.32;4.35;;;34.70;70.50;;;;;;10977145;32;20081;-73
2023/07/17 18:56:47;;;;;;;5.90;3.40;;;34.60;70.70;;;;;;10964152;32;20432;-73
2023/07/17 19:02:50;;;;;;;6.53;3.60;;;34.40;71.10;;;;;;10963077;32;20102;-73
2023/07/17 19:08:54;;;;;;;5.07;3.35;;;34.40;71.20;;;;;;10976566;32;20389;-73
2023/07/17 19:14:56;;;;;;;6.18;3.75;;;34.30;71.30;;;;;;10976505;32;20046;-73
2023/07/17 19:21:00;;;;;;;5.75;3.62;;;34.10;72.30;;;;;;10977621;32;20333;-73
2023/07/17 19:27:02;;;;;;;9.15;4.12;;;33.90;73.40;;;;;;10986160;32;20019;-72
2023/07/17 19:33:04;;;;;;;10.90;3.72;;;33.90;74.10;;;;;;11018940;32;20041;-73
2023/07/17 19:39:07;;;;;;;10.68;4.37;;;33.80;74.10;;;;;;11019008;32;20017;-73
2023/07/17 19:45:09;;;;;;;8.68;4.20;;;33.80;74.30;;;;;;11018229;32;20018;-73
2023/07/17 19:51:11;;;;;;;5.53;3.30;;;33.80;74.30;;;;;;11018472;32;20023;-73
2023/07/17 19:57:13;;;;;;;6.30;4.45;;;33.80;74.90;;;;;;11017737;32;20072;-73
2023/07/17 20:03:16;;;;;;;6.57;4.10;;;33.60;75.10;;;;;;11016863;32;20045;-73
2023/07/17 20:09:22;;;;;;;8.35;5.30;;;33.40;75.70;;;;;;11018008;32;20027;-73
2023/07/17 20:15:24;;;;;;;5.45;4.07;;;33.40;76.20;;;;;;11021113;32;20046;-73
2023/07/17 20:21:29;;;;;;;7.75;4.35;;;33.20;76.90;;;;;;11025732;32;20045;-73
2023/07/17 20:27:31;;;;;;;15.85;4.28;;;33.10;77.00;;;;;;11024386;32;20095;-73
2023/07/17 20:33:34;;;;;;;10.05;4.53;;;33.10;77.20;;;;;;11024260;32;20026;-73
2023/07/17 20:39:36;;;;;;;8.10;4.97;;;33.10;77.00;;;;;;11023261;32;20014;-73
2023/07/17 20:45:52;;;;;;;7.12;4.60;;;33.00;77.10;;;;;;11023785;32;20313;-73
2023/07/17 20:51:55;;;;;;;10.00;5.23;;;32.90;77.80;;;;;;11023507;32;20072;-73
2023/07/17 20:57:57;;;;;;;8.20;5.00;;;32.80;78.00;;;;;;11024000;32;20042;-73
2023/07/17 21:04:01;;;;;;;9.95;5.37;;;32.70;77.80;;;;;;11001991;32;20054;-73
2023/07/17 21:10:05;;;;;;;14.80;5.10;;;32.80;77.60;;;;;;10999272;32;20022;-73
2023/07/17 21:16:07;;;;;;;7.28;4.95;;;32.80;77.50;;;;;;11021732;32;20380;-73
2023/07/17 21:22:09;;;;;;;5.55;3.62;;;32.80;77.50;;;;;;11009205;32;20038;-72
2023/07/17 21:28:12;;;;;;;8.38;3.67;;;32.70;77.60;;;;;;11018093;32;20442;-72
2023/07/17 21:34:14;;;;;;;7.10;3.67;;;32.70;77.70;;;;;;11018921;32;20052;-72
2023/07/17 21:40:16;;;;;;;7.00;3.80;;;32.60;78.00;;;;;;11022504;32;20011;-72
2023/07/17 21:46:18;;;;;;;6.40;4.28;;;32.40;78.60;;;;;;11014622;32;20026;-72
2023/07/17 21:52:21;;;;;;;5.10;4.12;;;32.30;79.20;;;;;;11009016;32;20027;-72
2023/07/17 21:58:23;;;;;;;6.40;4.00;;;32.30;79.00;;;;;;11006361;32;20041;-72
2023/07/17 22:04:25;;;;;;;6.80;4.03;;;32.30;79.00;;;;;;11015295;32;20023;-72
2023/07/17 22:10:27;;;;;;;8.00;5.18;;;32.20;78.80;;;;;;10981181;32;20022;-72
2023/07/17 22:16:29;;;;;;;6.75;4.47;;;32.20;78.80;;;;;;10982351;32;20041;-72
2023/07/17 22:22:31;;;;;;;6.00;4.25;;;32.20;78.50;;;;;;10984841;32;20041;-72
2023/07/17 22:28:33;;;;;;;8.63;4.70;;;32.10;78.70;;;;;;11014164;32;20321;-73
2023/07/17 22:34:35;;;;;;;9.80;4.78;;;32.10;79.00;;;;;;11019101;32;20041;-72
2023/07/17 22:40:37;;;;;;;8.05;5.12;;;32.00;79.40;;;;;;11015071;32;20124;-72
2023/07/17 22:46:41;;;;;;;6.32;4.25;;;32.00;79.40;;;;;;11018653;32;20395;-73
2023/07/17 22:52:42;;;;;;;8.68;4.37;;;31.80;80.00;;;;;;11018470;32;20060;-72
2023/07/17 22:58:47;;;;;;;10.10;5.32;;;31.80;80.50;;;;;;11004140;32;20058;-73
2023/07/17 23:04:49;;;;;;;8.82;4.82;;;31.80;80.60;;;;;;11018206;32;20040;-72
2023/07/17 23:10:52;;;;;;;9.25;3.87;;;31.70;81.00;;;;;;11013862;32;20022;-72
2023/07/17 23:16:53;;;;;;;11.90;5.55;;;31.70;81.30;;;;;;11017958;32;20045;-73
2023/07/17 23:22:57;;;;;;;6.62;4.00;;;31.70;81.40;;;;;;11017804;32;20045;-72
2023/07/17 23:28:58;;;;;;;9.63;4.57;;;31.70;81.70;;;;;;10927949;26;20050;-73
2023/07/17 23:35:01;;;;;;;7.97;4.47;;;31.60;82.00;;;;;;10861389;32;20053;-73
2023/07/17 23:41:03;;;;;;;7.80;4.15;;;31.60;82.10;;;;;;10847935;32;20074;-72
2023/07/17 23:47:06;;;;;;;6.03;4.53;;;31.60;81.80;;;;;;10861130;32;20303;-73
2023/07/17 23:53:07;;;;;;;5.78;4.25;;;31.40;82.10;;;;;;10867432;32;20050;-72
2023/07/17 23:59:09;;;;;;;6.07;4.82;;;31.40;81.80;;;;;;10867541;32;20023;-72
